Time;durP1;ratioP1;P1;durP2;ratioP2;P2;SDS_P1;SDS_P2;PMS_P1;PMS_P2;Temp;Humidity;BMP_temperature;BMP_pressure;BME280_temperature;BME280_humidity;BME280_pressure;Samples;Min_cycle;Max_cycle;Signal;HPM_P1;HPM_P2
2022/09/14 00:00:27;;;;;;;6.40;5.37;;;20.60;1.00;;;;;;4953484;28;20200;-66
2022/09/14 00:02:53;;;;;;;5.77;5.30;;;20.50;1.00;;;;;;4956442;28;20260;-66
2022/09/14 00:05:20;;;;;;;8.10;5.67;;;20.20;1.00;;;;;;4956490;28;20171;-65
2022/09/14 00:07:45;;;;;;;6.37;5.70;;;20.20;1.00;;;;;;4956165;28;20464;-66
2022/09/14 00:10:11;;;;;;;6.37;5.80;;;20.00;99.90;;;;;;4956642;28;20453;-66
2022/09/14 00:12:37;;;;;;;6.90;6.13;;;20.00;1.00;;;;;;4956337;28;20251;-66
2022/09/14 00:15:05;;;;;;;7.80;6.43;;;20.10;99.90;;;;;;4956525;29;20265;-66
2022/09/14 00:17:31;;;;;;;6.97;6.30;;;20.20;99.90;;;;;;4955873;28;20725;-65
2022/09/14 00:19:57;;;;;;;7.37;6.67;;;20.20;1.00;;;;;;4956034;29;20414;-66
2022/09/14 00:22:22;;;;;;;8.00;6.37;;;20.10;99.90;;;;;;4955982;28;20198;-64
2022/09/14 00:24:49;;;;;;;11.10;6.60;;;20.10;99.90;;;;;;4956068;29;20206;-66
2022/09/14 00:27:15;;;;;;;24.17;8.53;;;20.30;21.70;;;;;;4955823;28;20647;-66
2022/09/14 00:29:40;;;;;;;8.13;6.13;;;20.30;1.00;;;;;;4955862;28;20437;-63
2022/09/14 00:32:06;;;;;;;8.87;6.33;;;20.30;1.00;;;;;;4956059;28;20200;-66
2022/09/14 00:34:33;;;;;;;6.80;6.10;;;20.30;1.00;;;;;;4956064;29;20175;-66
2022/09/14 00:36:59;;;;;;;10.70;6.50;;;20.40;1.00;;;;;;4955924;29;20209;-65
2022/09/14 00:39:26;;;;;;;15.77;6.83;;;20.30;25.80;;;;;;4955792;29;20895;-65
2022/09/14 00:41:53;;;;;;;22.00;8.97;;;20.30;99.90;;;;;;4955258;29;20521;-66
2022/09/14 00:44:18;;;;;;;16.80;7.03;;;20.30;99.90;;;;;;4955736;28;20950;-66
2022/09/14 00:46:44;;;;;;;7.77;7.07;;;20.40;24.80;;;;;;4955587;29;20410;-65
2022/09/14 00:49:18;;;;;;;7.67;6.80;;;20.30;96.50;;;;;;4955537;29;20177;-66
2022/09/14 00:52:08;;;;;;;12.60;7.57;;;20.20;99.90;;;;;;4955650;28;20238;-66
2022/09/14 00:54:56;;;;;;;9.80;6.67;;;20.30;99.90;;;;;;4955550;28;20938;-65
2022/09/14 00:57:23;;;;;;;11.30;6.70;;;20.30;1.00;;;;;;4955414;29;20997;-66
2022/09/14 00:59:51;;;;;;;8.37;7.23;;;20.30;99.90;;;;;;4955361;28;20510;-66
2022/09/14 01:02:19;;;;;;;9.60;7.53;;;20.30;99.90;;;;;;4955318;28;20915;-66
2022/09/14 01:04:46;;;;;;;8.07;7.27;;;20.30;1.00;;;;;;4955396;28;20450;-66
2022/09/14 01:07:25;;;;;;;8.17;7.47;;;20.30;1.00;;;;;;4955080;28;20413;-66
2022/09/14 01:10:12;;;;;;;7.90;7.00;;;20.30;1.00;;;;;;4953778;29;20420;-66
2022/09/14 01:12:50;;;;;;;8.20;7.50;;;20.30;99.90;;;;;;4954216;28;20729;-66
2022/09/14 01:15:43;;;;;;;9.63;7.43;;;20.30;1.00;;;;;;4955168;29;20500;-66
2022/09/14 01:18:28;;;;;;;9.10;7.77;;;20.30;1.00;;;;;;4954982;29;20463;-66
2022/09/14 01:20:57;;;;;;;9.27;7.50;;;20.30;1.00;;;;;;4955013;29;20416;-66
2022/09/14 01:23:28;;;;;;;9.60;7.73;;;20.30;1.00;;;;;;4953846;28;20484;-66
2022/09/14 01:25:57;;;;;;;13.87;8.30;;;20.30;1.00;;;;;;4955046;28;20414;-66
2022/09/14 01:28:30;;;;;;;11.23;8.30;;;20.30;1.00;;;;;;4954655;29;20517;-66
2022/09/14 01:31:00;;;;;;;9.20;7.47;;;20.30;1.00;;;;;;4954916;28;20489;-66
2022/09/14 01:33:38;;;;;;;9.33;8.17;;;20.20;1.00;;;;;;4955068;28;20842;-66
2022/09/14 01:36:07;;;;;;;8.83;8.00;;;20.10;1.00;;;;;;4954567;29;20473;-65
2022/09/14 01:38:39;;;;;;;8.80;8.03;;;20.10;1.00;;;;;;4954432;28;20477;-66
2022/09/14 01:41:10;;;;;;;14.60;8.00;;;20.10;1.00;;;;;;4954830;28;20950;-63
2022/09/14 01:43:45;;;;;;;20.73;8.40;;;20.10;1.00;;;;;;4954611;28;20805;-66
2022/09/14 01:46:16;;;;;;;11.43;7.60;;;20.10;1.00;;;;;;4954908;29;20755;-66
2022/09/14 01:48:49;;;;;;;9.20;8.00;;;20.10;1.00;;;;;;4954373;28;20525;-66
2022/09/14 01:51:22;;;;;;;14.43;8.03;;;20.10;1.00;;;;;;4954634;28;20414;-66
2022/09/14 01:54:02;;;;;;;11.90;7.40;;;20.10;1.00;;;;;;4954305;28;20469;-66
2022/09/14 01:56:55;;;;;;;11.70;8.60;;;20.10;1.00;;;;;;4954425;28;20412;-66
2022/09/14 01:59:27;;;;;;;10.43;9.40;;;20.20;1.00;;;;;;4954877;28;21079;-66
2022/09/14 02:02:04;;;;;;;15.70;8.10;;;20.00;39.20;;;;;;4954601;28;20414;-66
2022/09/14 02:04:57;;;;;;;10.73;9.60;;;19.90;99.90;;;;;;4954215;28;20763;-66
2022/09/14 02:07:23;;;;;;;9.30;7.97;;;19.90;99.90;;;;;;4953987;28;20481;-66
2022/09/14 02:09:51;;;;;;;8.83;7.97;;;19.90;99.90;;;;;;4954101;28;20413;-66
2022/09/14 02:12:17;;;;;;;10.30;8.73;;;19.60;99.90;;;;;;4953975;28;21137;-66
2022/09/14 02:14:45;;;;;;;11.57;8.73;;;19.70;99.90;;;;;;4954031;28;20410;-66
2022/09/14 02:17:12;;;;;;;11.00;8.70;;;19.80;1.00;;;;;;4954060;28;21118;-66
2022/09/14 02:19:56;;;;;;;14.77;10.23;;;19.90;1.00;;;;;;4954100;28;20401;-66
2022/09/14 02:22:24;;;;;;;10.13;9.20;;;19.90;1.00;;;;;;4953807;28;20485;-64
2022/09/14 02:24:50;;;;;;;9.53;8.63;;;19.90;1.00;;;;;;4953520;28;20410;-66
2022/09/14 02:27:16;;;;;;;10.03;9.00;;;19.90;1.00;;;;;;4953657;28;20414;-66
2022/09/14 02:29:42;;;;;;;19.33;9.10;;;20.00;1.00;;;;;;4953712;28;20422;-66
2022/09/14 02:32:22;;;;;;;13.03;9.00;;;20.00;1.00;;;;;;4954128;28;20225;-65
2022/09/14 02:35:06;;;;;;;9.30;8.37;;;20.00;1.00;;;;;;4953847;29;20589;-66
2022/09/14 02:37:50;;;;;;;11.60;10.07;;;20.00;1.00;;;;;;4953530;29;20468;-66
2022/09/14 02:40:39;;;;;;;18.07;9.00;;;20.00;1.00;;;;;;4953457;29;20452;-63
2022/09/14 02:43:25;;;;;;;8.77;7.10;;;20.00;1.00;;;;;;4928459;23;1177834;-67
2022/09/14 02:46:02;;;;;;;8.50;7.70;;;20.10;1.00;;;;;;4952894;28;20182;-67
2022/09/14 02:48:27;;;;;;;13.60;7.70;;;20.10;1.00;;;;;;4952574;28;20410;-66
2022/09/14 02:50:56;;;;;;;8.80;7.53;;;20.10;99.90;;;;;;4953057;28;20414;-67
2022/09/14 02:53:58;;;;;;;8.10;6.67;;;20.10;1.00;;;;;;4952638;28;20647;-66
2022/09/14 02:56:25;;;;;;;10.93;6.13;;;20.00;1.00;;;;;;4948703;29;20410;-66
2022/09/14 02:58:51;;;;;;;13.67;7.27;;;20.00;99.90;;;;;;4950902;28;20497;-67
2022/09/14 03:01:19;;;;;;;13.47;7.73;;;20.00;99.90;;;;;;4952829;28;20505;-67
2022/09/14 03:03:45;;;;;;;7.97;7.17;;;20.00;99.90;;;;;;4952954;28;20213;-67
2022/09/14 03:06:11;;;;;;;15.50;7.10;;;19.90;99.90;;;;;;4952759;28;20398;-67
2022/09/14 03:08:37;;;;;;;13.30;8.03;;;19.90;99.90;;;;;;4952103;28;20421;-67
2022/09/14 03:11:04;;;;;;;9.80;7.13;;;20.00;99.90;;;;;;4952796;28;20562;-67
2022/09/14 03:13:30;;;;;;;8.83;7.13;;;20.00;99.90;;;;;;4952926;28;20428;-65
2022/09/14 03:15:56;;;;;;;8.27;7.00;;;20.00;99.90;;;;;;4952971;28;20770;-66
2022/09/14 03:18:22;;;;;;;8.30;6.80;;;19.90;99.90;;;;;;4952470;28;20212;-68
2022/09/14 03:20:47;;;;;;;7.93;7.23;;;19.90;99.90;;;;;;4952743;28;20653;-67
2022/09/14 03:23:14;;;;;;;10.37;7.90;;;19.90;99.90;;;;;;4948667;28;20246;-68
2022/09/14 03:25:42;;;;;;;10.67;8.33;;;19.80;1.00;;;;;;4952799;28;20270;-64
2022/09/14 03:28:09;;;;;;;9.37;7.53;;;19.90;1.00;;;;;;4952333;28;20781;-66
2022/09/14 03:30:36;;;;;;;8.53;7.60;;;19.80;1.00;;;;;;4952443;28;20484;-66
2022/09/14 03:33:02;;;;;;;12.00;8.00;;;19.60;1.00;;;;;;4952843;28;20438;-66
2022/09/14 03:35:30;;;;;;;8.27;7.47;;;19.50;1.00;;;;;;4953602;28;20418;-65
2022/09/14 03:37:56;;;;;;;8.30;7.03;;;19.70;1.00;;;;;;4956434;28;20458;-65
2022/09/14 03:40:22;;;;;;;8.60;7.37;;;19.60;1.00;;;;;;4956545;28;20406;-65
2022/09/14 03:42:49;;;;;;;7.50;6.70;;;19.50;1.00;;;;;;4956198;28;20453;-64
2022/09/14 03:45:16;;;;;;;8.30;7.50;;;19.50;1.00;;;;;;4956730;28;20166;-66
2022/09/14 03:47:42;;;;;;;8.27;6.97;;;19.60;1.00;;;;;;4956436;28;20501;-67
2022/09/14 03:50:10;;;;;;;8.07;7.10;;;19.50;1.00;;;;;;4956311;28;20549;-66
2022/09/14 03:52:37;;;;;;;10.33;7.67;;;19.50;1.00;;;;;;4956201;28;20194;-66
2022/09/14 03:55:05;;;;;;;8.30;7.50;;;19.40;1.00;;;;;;4950898;28;20413;-66
2022/09/14 03:57:31;;;;;;;7.70;7.00;;;19.40;1.00;;;;;;4949162;28;20468;-66
2022/09/14 04:00:00;;;;;;;10.43;7.67;;;19.50;1.00;;;;;;4963705;28;20527;-66
2022/09/14 04:02:28;;;;;;;8.83;7.93;;;19.60;1.00;;;;;;4954575;28;20437;-65
2022/09/14 04:04:54;;;;;;;15.47;8.40;;;19.50;1.00;;;;;;4956045;28;20518;-66
2022/09/14 04:07:20;;;;;;;17.33;9.10;;;19.50;1.00;;;;;;4953637;28;20571;-65
2022/09/14 04:09:45;;;;;;;16.07;8.20;;;19.50;1.00;;;;;;4955924;28;20182;-66
2022/09/14 04:12:11;;;;;;;9.53;8.00;;;19.50;1.00;;;;;;4954799;28;20437;-66
2022/09/14 04:14:37;;;;;;;9.03;8.13;;;19.50;1.00;;;;;;4953349;28;20636;-67
2022/09/14 04:17:03;;;;;;;7.87;7.13;;;19.60;1.00;;;;;;4953035;28;20202;-67
2022/09/14 04:19:29;;;;;;;8.47;7.60;;;19.60;1.00;;;;;;4951754;28;20189;-67
2022/09/14 04:21:55;;;;;;;22.60;10.73;;;19.50;1.00;;;;;;4953013;28;20456;-66
2022/09/14 04:24:21;;;;;;;14.70;9.30;;;19.40;1.00;;;;;;4952906;28;20429;-67
2022/09/14 04:26:47;;;;;;;15.00;10.10;;;19.40;1.00;;;;;;4952800;28;20234;-66
2022/09/14 04:29:13;;;;;;;14.33;9.80;;;19.40;1.00;;;;;;4954659;28;20571;-67
2022/09/14 04:31:39;;;;;;;16.03;10.80;;;19.50;1.00;;;;;;4966301;28;20174;-66
2022/09/14 04:34:05;;;;;;;14.90;10.00;;;19.60;1.00;;;;;;4968787;28;21015;-67
2022/09/14 04:36:31;;;;;;;18.10;9.23;;;19.60;1.00;;;;;;4967278;28;21018;-66
2022/09/14 04:39:02;;;;;;;24.60;11.20;;;19.50;1.00;;;;;;4963104;28;20429;-67
2022/09/14 04:41:29;;;;;;;12.47;8.77;;;19.60;1.00;;;;;;4962292;28;20785;-67
2022/09/14 04:43:56;;;;;;;19.23;10.30;;;19.50;1.00;;;;;;4963224;28;20453;-67
2022/09/14 04:46:27;;;;;;;12.47;11.00;;;19.30;1.00;;;;;;4954411;28;20438;-66
2022/09/14 04:48:53;;;;;;;13.17;9.73;;;19.30;1.00;;;;;;4948438;28;20432;-67
2022/09/14 04:51:21;;;;;;;11.30;9.27;;;19.30;1.00;;;;;;4955079;28;20500;-69
2022/09/14 04:53:49;;;;;;;29.67;13.50;;;19.30;1.00;;;;;;4954522;28;20264;-67
2022/09/14 04:56:16;;;;;;;14.97;9.37;;;19.50;1.00;;;;;;4954632;28;20421;-68
2022/09/14 04:58:44;;;;;;;34.00;11.23;;;19.50;1.00;;;;;;4954969;28;20600;-68
2022/09/14 05:01:13;;;;;;;25.53;11.47;;;19.50;1.00;;;;;;4960037;28;20473;-68
2022/09/14 05:03:39;;;;;;;15.53;10.00;;;19.60;1.00;;;;;;4966833;28;20430;-68
2022/09/14 05:06:11;;;;;;;15.90;9.60;;;19.60;1.00;;;;;;4968084;28;20765;-68
2022/09/14 05:08:37;;;;;;;25.13;11.13;;;19.60;1.00;;;;;;4961665;28;20434;-67
2022/09/14 05:11:05;;;;;;;10.90;8.73;;;19.50;1.00;;;;;;4963768;28;20504;-67
2022/09/14 05:13:31;;;;;;;63.53;15.90;;;19.60;1.00;;;;;;4952003;28;20463;-68
2022/09/14 05:16:12;;;;;;;42.70;12.60;;;19.60;1.00;;;;;;4955607;28;20489;-68
2022/09/14 05:18:38;;;;;;;58.60;13.17;;;19.70;1.00;;;;;;4955603;28;20610;-68
2022/09/14 05:21:06;;;;;;;21.30;9.83;;;19.70;1.00;;;;;;4954115;28;20489;-68
2022/09/14 05:23:32;;;;;;;15.20;10.03;;;19.70;1.00;;;;;;4957533;28;20194;-67
2022/09/14 05:25:58;;;;;;;16.40;9.93;;;19.70;1.00;;;;;;4951872;28;20442;-66
2022/09/14 05:28:25;;;;;;;29.30;10.73;;;19.70;1.00;;;;;;4949814;28;20421;-67
2022/09/14 05:30:52;;;;;;;17.27;9.90;;;19.70;1.00;;;;;;4951278;28;20414;-67
2022/09/14 05:33:18;;;;;;;47.73;14.27;;;19.70;1.00;;;;;;4950934;28;20440;-67
2022/09/14 05:35:44;;;;;;;24.60;12.97;;;19.80;1.00;;;;;;4951344;28;20410;-67
2022/09/14 05:38:09;;;;;;;21.87;12.00;;;19.70;1.00;;;;;;4951391;28;20970;-66
2022/09/14 05:40:35;;;;;;;19.30;11.83;;;19.80;1.00;;;;;;4952999;28;20438;-68
2022/09/14 05:43:01;;;;;;;27.73;12.37;;;19.80;1.00;;;;;;4951178;28;20204;-68
2022/09/14 05:45:26;;;;;;;28.17;13.23;;;19.80;1.00;;;;;;4950938;28;20182;-67
2022/09/14 05:47:52;;;;;;;27.20;12.10;;;19.70;1.00;;;;;;4958198;28;20182;-67
2022/09/14 05:50:18;;;;;;;35.03;12.53;;;19.80;1.00;;;;;;4958023;28;20183;-68
2022/09/14 05:52:43;;;;;;;37.37;12.73;;;19.70;1.00;;;;;;4957235;28;20194;-68
2022/09/14 05:55:09;;;;;;;26.90;10.83;;;19.70;1.00;;;;;;4947369;28;20212;-67
2022/09/14 05:57:35;;;;;;;36.93;10.90;;;19.80;1.00;;;;;;4951537;28;20209;-68
2022/09/14 06:00:01;;;;;;;24.70;10.77;;;19.80;1.00;;;;;;4953483;28;20205;-68
2022/09/14 06:02:26;;;;;;;21.87;11.03;;;19.80;1.00;;;;;;4951834;28;20297;-66
2022/09/14 06:04:52;;;;;;;16.47;11.23;;;19.80;1.00;;;;;;4955192;28;20541;-67
2022/09/14 06:07:18;;;;;;;24.67;10.00;;;19.80;1.00;;;;;;4948816;28;20190;-67
2022/09/14 06:09:43;;;;;;;23.00;10.80;;;19.70;1.00;;;;;;4955523;28;20659;-68
2022/09/14 06:12:09;;;;;;;35.27;11.63;;;19.70;1.00;;;;;;4936823;29;20554;-68
2022/09/14 06:14:34;;;;;;;16.00;10.80;;;19.70;1.00;;;;;;4941879;28;20209;-67
2022/09/14 06:17:01;;;;;;;18.77;10.77;;;19.70;1.00;;;;;;4972804;28;20200;-66
2022/09/14 06:19:27;;;;;;;15.10;9.80;;;19.80;1.00;;;;;;4972545;28;20178;-68
2022/09/14 06:21:53;;;;;;;17.77;11.40;;;19.70;1.00;;;;;;4972957;28;20431;-67
2022/09/14 06:24:19;;;;;;;21.47;10.03;;;19.80;1.00;;;;;;4972612;28;20433;-68
2022/09/14 06:26:44;;;;;;;11.43;9.73;;;19.80;1.00;;;;;;4970931;28;20189;-67
2022/09/14 06:29:10;;;;;;;15.47;9.07;;;19.80;1.00;;;;;;4953230;28;20221;-70
2022/09/14 06:31:36;;;;;;;10.93;8.07;;;19.90;1.00;;;;;;4953288;28;20214;-69
2022/09/14 06:34:02;;;;;;;14.10;9.40;;;19.90;1.00;;;;;;4953208;28;20194;-68
2022/09/14 06:36:28;;;;;;;13.43;9.97;;;20.00;1.00;;;;;;4953309;28;20185;-69
2022/09/14 06:38:55;;;;;;;15.43;9.93;;;20.00;1.00;;;;;;4952476;28;20441;-67
2022/09/14 06:41:25;;;;;;;68.80;14.50;;;20.10;1.00;;;;;;4951836;28;20438;-68
2022/09/14 06:43:54;;;;;;;76.97;15.93;;;20.10;1.00;;;;;;4952996;28;20866;-69
2022/09/14 06:46:24;;;;;;;24.70;8.93;;;20.20;1.00;;;;;;4952751;28;20409;-67
2022/09/14 06:48:51;;;;;;;15.70;7.90;;;20.30;1.00;;;;;;4952657;28;20409;-66
2022/09/14 06:51:23;;;;;;;21.37;9.30;;;20.40;1.00;;;;;;4952979;28;20759;-68
2022/09/14 06:53:50;;;;;;;27.20;9.63;;;20.40;1.00;;;;;;4952940;28;20452;-70
2022/09/14 06:56:17;;;;;;;28.03;9.00;;;20.40;1.00;;;;;;4953147;28;20506;-67
2022/09/14 06:58:43;;;;;;;17.40;9.70;;;20.40;1.00;;;;;;4952650;28;20806;-68
2022/09/14 07:01:13;;;;;;;44.77;10.67;;;20.40;1.00;;;;;;4953224;28;20774;-68
2022/09/14 07:03:39;;;;;;;19.40;8.33;;;20.40;1.00;;;;;;4952964;28;20887;-67
2022/09/14 07:06:11;;;;;;;55.27;11.00;;;20.50;1.00;;;;;;4952818;28;20444;-68
2022/09/14 07:08:37;;;;;;;36.13;8.77;;;20.50;1.00;;;;;;4952759;29;20433;-69
2022/09/14 07:11:04;;;;;;;21.40;10.13;;;20.60;1.00;;;;;;4952063;28;20425;-67
2022/09/14 07:13:31;;;;;;;20.87;7.53;;;20.80;1.00;;;;;;4953007;28;20521;-68
2022/09/14 07:15:57;;;;;;;18.67;8.13;;;20.90;1.00;;;;;;4953151;28;20468;-68
2022/09/14 07:18:26;;;;;;;12.20;6.90;;;20.90;1.00;;;;;;4952350;28;20459;-67
2022/09/14 07:20:53;;;;;;;22.57;7.47;;;21.00;1.00;;;;;;4952855;28;20178;-68
2022/09/14 07:23:18;;;;;;;10.83;6.90;;;21.10;1.00;;;;;;4952510;28;20446;-66
2022/09/14 07:25:44;;;;;;;20.77;7.93;;;21.30;1.00;;;;;;4952840;28;20461;-68
2022/09/14 07:28:10;;;;;;;12.90;6.30;;;21.60;1.00;;;;;;4952410;28;20222;-68
2022/09/14 07:30:36;;;;;;;6.87;5.37;;;21.80;1.00;;;;;;4952817;28;20174;-69
2022/09/14 07:33:03;;;;;;;13.30;6.40;;;22.00;1.00;;;;;;4952685;28;20613;-66
2022/09/14 07:35:30;;;;;;;16.73;5.50;;;22.10;99.90;;;;;;4952869;28;20418;-67
2022/09/14 07:37:56;;;;;;;22.03;5.70;;;22.20;99.90;;;;;;4952597;28;20493;-66
2022/09/14 07:40:22;;;;;;;26.63;6.70;;;22.30;99.90;;;;;;4952641;28;20829;-66
2022/09/14 07:42:52;;;;;;;10.83;5.63;;;22.50;99.90;;;;;;4952528;28;20221;-67
2022/09/14 07:45:18;;;;;;;10.47;5.37;;;22.40;99.90;;;;;;4952927;28;20510;-67
2022/09/14 07:47:44;;;;;;;18.50;8.23;;;22.50;70.20;;;;;;4952661;28;20977;-68
2022/09/14 07:50:09;;;;;;;14.93;5.83;;;22.60;1.00;;;;;;4952573;28;20174;-66
2022/09/14 07:52:35;;;;;;;14.87;6.40;;;22.70;1.00;;;;;;4952696;28;20578;-65
2022/09/14 07:55:01;;;;;;;21.33;6.87;;;22.90;1.00;;;;;;4952662;28;20257;-65
2022/09/14 07:57:27;;;;;;;23.77;6.80;;;23.10;1.00;;;;;;4952433;28;20234;-66
2022/09/14 07:59:52;;;;;;;20.10;6.87;;;23.00;1.00;;;;;;4952490;28;20182;-65
2022/09/14 08:02:18;;;;;;;11.43;5.57;;;23.00;1.00;;;;;;4952543;28;20174;-66
2022/09/14 08:04:44;;;;;;;10.53;6.53;;;22.90;1.00;;;;;;4952214;28;20175;-67
2022/09/14 08:07:09;;;;;;;12.57;5.93;;;22.90;1.00;;;;;;4952262;28;20181;-64
2022/09/14 08:09:37;;;;;;;6.87;5.30;;;22.90;1.00;;;;;;4952208;28;20643;-66
2022/09/14 08:12:04;;;;;;;8.40;5.97;;;23.00;1.00;;;;;;4952235;28;20189;-65
2022/09/14 08:14:30;;;;;;;10.63;5.73;;;23.00;1.00;;;;;;4952454;28;20530;-66
2022/09/14 08:16:56;;;;;;;37.03;7.87;;;23.10;1.00;;;;;;4952298;28;20465;-66
2022/09/14 08:19:22;;;;;;;18.53;6.17;;;23.30;1.00;;;;;;4952248;28;20409;-65
2022/09/14 08:21:47;;;;;;;25.10;7.90;;;23.60;1.00;;;;;;4953523;28;20639;-65
2022/09/14 08:24:16;;;;;;;8.53;5.23;;;23.90;99.90;;;;;;4955651;28;20682;-65
2022/09/14 08:26:41;;;;;;;9.97;4.97;;;24.10;1.00;;;;;;4955751;28;20597;-66
2022/09/14 08:29:07;;;;;;;20.90;6.30;;;24.30;1.00;;;;;;4955367;28;20418;-65
2022/09/14 08:31:37;;;;;;;33.10;7.23;;;24.50;99.90;;;;;;4954276;28;20181;-66
2022/09/14 08:34:04;;;;;;;24.17;7.00;;;24.70;1.00;;;;;;4955850;28;20205;-65
2022/09/14 08:36:32;;;;;;;13.53;5.20;;;24.80;99.90;;;;;;4955661;28;20417;-66
2022/09/14 08:38:59;;;;;;;14.67;5.60;;;24.90;27.60;;;;;;4955195;28;20461;-65
2022/09/14 08:41:43;;;;;;;11.07;5.00;;;24.80;1.00;;;;;;4955523;28;20523;-69
2022/09/14 08:44:27;;;;;;;20.73;5.53;;;24.80;1.00;;;;;;4999636;23;20834;-68
2022/09/14 08:47:11;;;;;;;10.83;4.90;;;24.80;1.00;;;;;;4987672;28;20979;-68
2022/09/14 08:49:46;;;;;;;22.73;7.40;;;24.90;1.00;;;;;;4993848;28;20403;-68
2022/09/14 08:52:29;;;;;;;9.43;4.93;;;25.10;1.00;;;;;;4989406;28;20415;-68
2022/09/14 08:54:57;;;;;;;20.97;4.30;;;25.30;1.00;;;;;;4968839;28;20941;-69
2022/09/14 08:57:30;;;;;;;10.10;4.53;;;25.40;1.00;;;;;;4974289;28;20500;-68
2022/09/14 09:00:12;;;;;;;7.83;5.20;;;25.30;1.00;;;;;;4974220;28;20401;-68
2022/09/14 09:02:47;;;;;;;19.40;7.40;;;25.10;1.00;;;;;;4975118;28;20389;-69
2022/09/14 09:05:45;;;;;;;33.00;9.13;;;25.00;1.00;;;;;;4974370;28;20400;-68
2022/09/14 09:08:22;;;;;;;20.10;7.23;;;25.20;1.00;;;;;;4974003;28;20404;-68
2022/09/14 09:10:52;;;;;;;14.73;5.10;;;25.40;1.00;;;;;;4974508;28;20707;-68
2022/09/14 09:13:22;;;;;;;7.83;4.83;;;25.60;1.00;;;;;;4974066;28;20535;-68
2022/09/14 09:15:54;;;;;;;7.43;4.50;;;25.70;99.90;;;;;;4974028;28;20774;-68
2022/09/14 09:18:45;;;;;;;7.63;4.27;;;25.70;99.90;;;;;;4973590;28;20465;-68
2022/09/14 09:21:17;;;;;;;8.87;4.03;;;25.60;99.90;;;;;;4973978;28;20405;-68
2022/09/14 09:23:43;;;;;;;14.37;5.80;;;25.60;99.90;;;;;;4973898;28;20929;-68
2022/09/14 09:26:15;;;;;;;13.90;5.20;;;25.50;99.90;;;;;;4973821;28;20535;-68
2022/09/14 09:28:50;;;;;;;7.93;4.83;;;25.50;99.90;;;;;;4974067;28;20434;-69
2022/09/14 09:31:18;;;;;;;34.07;5.87;;;25.50;99.90;;;;;;4974066;28;20478;-68
2022/09/14 09:33:47;;;;;;;16.03;6.60;;;25.50;99.90;;;;;;4972881;28;20429;-68
2022/09/14 09:36:14;;;;;;;18.87;5.63;;;25.40;99.90;;;;;;4973770;28;20424;-68
2022/09/14 09:38:40;;;;;;;7.80;4.40;;;25.10;99.90;;;;;;4973489;28;20457;-67
2022/09/14 09:41:28;;;;;;;21.27;6.33;;;24.90;99.90;;;;;;4973922;28;20412;-69
2022/09/14 09:44:02;;;;;;;17.53;6.17;;;24.80;99.90;;;;;;4972074;28;20209;-68
2022/09/14 09:46:33;;;;;;;22.60;5.90;;;24.70;1.00;;;;;;4973608;28;20407;-68
2022/09/14 09:49:03;;;;;;;26.63;7.03;;;24.70;1.00;;;;;;4973535;28;20416;-68
2022/09/14 09:51:31;;;;;;;28.87;8.53;;;24.80;1.00;;;;;;4973499;28;20420;-67
2022/09/14 09:54:12;;;;;;;13.17;5.47;;;25.00;1.00;;;;;;4974087;28;20511;-67
2022/09/14 09:57:00;;;;;;;17.50;4.80;;;25.20;99.90;;;;;;4975028;28;20405;-68
2022/09/14 09:59:31;;;;;;;9.70;4.90;;;25.50;99.90;;;;;;4974385;28;20432;-67
2022/09/14 10:02:20;;;;;;;13.37;4.90;;;25.60;99.90;;;;;;4974726;28;20436;-68
2022/09/14 10:04:57;;;;;;;8.93;4.77;;;25.70;99.90;;;;;;4978822;28;20492;-68
2022/09/14 10:07:24;;;;;;;27.27;6.70;;;25.90;73.60;;;;;;4983050;28;20443;-68
2022/09/14 10:09:58;;;;;;;13.73;4.57;;;25.90;1.00;;;;;;4983041;28;20401;-68
2022/09/14 10:12:24;;;;;;;11.17;4.70;;;26.00;1.00;;;;;;4983017;28;20433;-68
2022/09/14 10:15:14;;;;;;;15.43;5.60;;;26.20;1.00;;;;;;4983344;28;20413;-69
2022/09/14 10:17:40;;;;;;;14.80;5.73;;;26.30;1.00;;;;;;4982217;28;20441;-68
2022/09/14 10:20:19;;;;;;;17.50;5.20;;;26.40;1.00;;;;;;4983825;28;20591;-68
2022/09/14 10:22:44;;;;;;;13.40;5.20;;;26.50;1.00;;;;;;4988515;28;20882;-69
2022/09/14 10:25:13;;;;;;;24.17;5.80;;;26.50;1.00;;;;;;4987015;28;20451;-69
2022/09/14 10:27:47;;;;;;;11.80;5.30;;;26.60;1.00;;;;;;4975243;28;20611;-68
2022/09/14 10:30:18;;;;;;;10.90;5.27;;;26.60;1.00;;;;;;4972433;28;20933;-69
2022/09/14 10:33:05;;;;;;;9.70;5.30;;;26.70;1.00;;;;;;4972541;28;20479;-68
2022/09/14 10:35:48;;;;;;;23.83;5.20;;;26.60;1.00;;;;;;4972392;28;20417;-69
2022/09/14 10:38:32;;;;;;;8.10;4.83;;;26.50;1.00;;;;;;4972147;28;20944;-69
2022/09/14 10:41:29;;;;;;;20.43;6.17;;;26.60;1.00;;;;;;4971844;28;20429;-68
2022/09/14 10:44:12;;;;;;;10.00;4.43;;;26.50;1.00;;;;;;4971938;28;20460;-69
2022/09/14 10:47:03;;;;;;;46.70;7.80;;;26.50;1.00;;;;;;4972165;28;20896;-68
2022/09/14 10:49:30;;;;;;;25.03;5.40;;;26.40;1.00;;;;;;4972195;28;20401;-69
2022/09/14 10:52:17;;;;;;;23.07;6.30;;;26.40;1.00;;;;;;4972099;28;20408;-69
2022/09/14 10:55:19;;;;;;;23.63;5.67;;;26.30;1.00;;;;;;4971462;28;20522;-69
2022/09/14 10:58:11;;;;;;;10.00;5.10;;;26.20;1.00;;;;;;4972047;28;20463;-68
2022/09/14 11:01:10;;;;;;;6.10;4.40;;;26.20;1.00;;;;;;4949541;28;20508;-68
2022/09/14 11:03:42;;;;;;;15.67;6.60;;;26.30;1.00;;;;;;4971739;28;20424;-68
2022/09/14 11:06:38;;;;;;;27.70;7.00;;;26.30;1.00;;;;;;4971815;28;20404;-68
2022/09/14 11:09:48;;;;;;;15.30;5.73;;;26.30;1.00;;;;;;4970475;28;20405;-69
2022/09/14 11:12:33;;;;;;;18.90;6.23;;;26.20;1.00;;;;;;4952980;28;20448;-69
2022/09/14 11:15:17;;;;;;;12.87;5.30;;;26.00;1.00;;;;;;4982690;28;20416;-69
2022/09/14 11:17:49;;;;;;;28.13;6.70;;;25.90;1.00;;;;;;4982608;28;20976;-68
2022/09/14 11:20:27;;;;;;;26.87;6.33;;;25.80;1.00;;;;;;4984446;28;20436;-69
2022/09/14 11:23:11;;;;;;;24.57;7.07;;;25.70;1.00;;;;;;4984920;28;20854;-69
2022/09/14 11:26:18;;;;;;;13.53;4.33;;;25.80;1.00;;;;;;4990802;28;20400;-69
2022/09/14 11:29:01;;;;;;;12.97;4.70;;;25.70;1.00;;;;;;4890754;28;20485;-69
2022/09/14 11:31:48;;;;;;;13.07;4.27;;;25.80;1.00;;;;;;4979800;28;20840;-69
2022/09/14 11:34:25;;;;;;;12.87;4.63;;;25.70;1.00;;;;;;4977935;28;20582;-69
2022/09/14 11:37:02;;;;;;;27.40;7.10;;;25.70;1.00;;;;;;4981061;28;20439;-69
2022/09/14 11:39:32;;;;;;;43.63;6.67;;;25.60;1.00;;;;;;4973057;28;20459;-68
2022/09/14 11:42:03;;;;;;;16.90;4.13;;;25.60;1.00;;;;;;4971941;28;20412;-68
2022/09/14 11:44:36;;;;;;;9.50;5.13;;;25.60;1.00;;;;;;4972773;28;20472;-67
2022/09/14 11:47:11;;;;;;;11.23;4.23;;;25.50;1.00;;;;;;4983294;28;20590;-69
2022/09/14 11:49:43;;;;;;;5.60;4.73;;;25.50;1.00;;;;;;4981251;28;20511;-67
2022/09/14 11:52:18;;;;;;;16.37;4.80;;;25.50;1.00;;;;;;4974681;28;20432;-68
2022/09/14 11:54:44;;;;;;;37.83;6.67;;;25.50;1.00;;;;;;4971171;28;20463;-68
2022/09/14 11:57:17;;;;;;;37.03;7.20;;;25.50;1.00;;;;;;4981444;28;20462;-68
2022/09/14 11:59:43;;;;;;;36.57;7.33;;;25.50;1.00;;;;;;4956096;28;20174;-68
2022/09/14 12:02:24;;;;;;;28.23;6.27;;;25.50;1.00;;;;;;4955740;28;20526;-68
2022/09/14 12:05:04;;;;;;;18.83;5.10;;;25.50;1.00;;;;;;4956058;28;20464;-68
2022/09/14 12:07:42;;;;;;;10.10;4.37;;;25.50;1.00;;;;;;4980600;28;20439;-68
2022/09/14 12:10:16;;;;;;;25.73;6.63;;;25.60;1.00;;;;;;4987504;28;20419;-68
2022/09/14 12:12:42;;;;;;;16.60;5.80;;;25.60;1.00;;;;;;4974945;28;20817;-68
2022/09/14 12:15:35;;;;;;;20.60;5.83;;;25.70;1.00;;;;;;4986422;28;20419;-70
2022/09/14 12:18:07;;;;;;;30.27;5.90;;;25.80;1.00;;;;;;4974925;28;20275;-69
2022/09/14 12:20:45;;;;;;;12.37;3.60;;;26.00;1.00;;;;;;4990964;28;20812;-68
2022/09/14 12:23:28;;;;;;;9.67;4.73;;;26.00;1.00;;;;;;4981244;28;20440;-69
2022/09/14 12:26:10;;;;;;;13.97;5.10;;;25.80;1.00;;;;;;4959051;28;20427;-69
2022/09/14 12:28:38;;;;;;;15.50;4.80;;;25.70;1.00;;;;;;4985379;28;20448;-68
2022/09/14 12:31:04;;;;;;;14.10;4.20;;;25.60;1.00;;;;;;4988745;28;20435;-69
2022/09/14 12:33:30;;;;;;;11.17;4.70;;;25.60;1.00;;;;;;4980607;28;20467;-69
2022/09/14 12:36:02;;;;;;;36.23;7.60;;;25.50;1.00;;;;;;4980326;28;20181;-68
2022/09/14 12:38:30;;;;;;;12.37;5.07;;;25.50;1.00;;;;;;4984713;28;20288;-69
2022/09/14 12:41:02;;;;;;;10.63;4.70;;;25.50;1.00;;;;;;4989592;28;20831;-69
2022/09/14 12:43:34;;;;;;;14.13;4.60;;;25.40;1.00;;;;;;4984454;28;20471;-69
2022/09/14 12:46:19;;;;;;;11.43;5.03;;;25.40;1.00;;;;;;4983662;28;20475;-68
2022/09/14 12:48:48;;;;;;;19.40;6.80;;;25.40;1.00;;;;;;4975260;28;20401;-68
2022/09/14 12:51:19;;;;;;;18.17;5.80;;;25.30;1.00;;;;;;4973131;28;20642;-69
2022/09/14 12:53:49;;;;;;;15.53;4.57;;;25.50;1.00;;;;;;4985299;28;20916;-69
2022/09/14 12:56:30;;;;;;;15.63;6.60;;;25.50;1.00;;;;;;4979463;28;20464;-69
2022/09/14 12:59:27;;;;;;;20.83;7.13;;;25.30;1.00;;;;;;4983822;28;20468;-69
2022/09/14 13:02:20;;;;;;;22.83;6.67;;;24.90;1.00;;;;;;4961036;28;20464;-68
2022/09/14 13:04:46;;;;;;;36.40;8.80;;;24.50;14.20;;;;;;4979330;28;20499;-68
2022/09/14 13:07:16;;;;;;;8.87;5.03;;;24.10;99.90;;;;;;4986907;28;20432;-69